sensor_id;sensor_type;location;lat;lon;timestamp;P1;durP1;ratioP1;P2;durP2;ratioP2
11123;SDS011;5616;42.692;23.312;2023-08-20T00:00:58;6.40;;;5.80;;
11123;SDS011;5616;42.692;23.312;2023-08-20T00:03:29;7.90;;;5.87;;
11123;SDS011;5616;42.692;23.312;2023-08-20T00:05:56;7.90;;;5.97;;
11123;SDS011;5616;42.692;23.312;2023-08-20T00:08:25;6.83;;;6.17;;
11123;SDS011;5616;42.692;23.312;2023-08-20T00:10:51;6.57;;;5.90;;
11123;SDS011;5616;42.692;23.312;2023-08-20T00:13:18;8.93;;;5.97;;
11123;SDS011;5616;42.692;23.312;2023-08-20T00:15:45;8.33;;;6.37;;
11123;SDS011;5616;42.692;23.312;2023-08-20T00:18:13;8.63;;;5.87;;
11123;SDS011;5616;42.692;23.312;2023-08-20T00:20:40;7.37;;;5.80;;
11123;SDS011;5616;42.692;23.312;2023-08-20T00:23:08;6.70;;;6.03;;
11123;SDS011;5616;42.692;23.312;2023-08-20T00:25:37;7.87;;;5.70;;
11123;SDS011;5616;42.692;23.312;2023-08-20T00:28:04;7.40;;;5.50;;
11123;SDS011;5616;42.692;23.312;2023-08-20T00:30:31;8.17;;;5.80;;
11123;SDS011;5616;42.692;23.312;2023-08-20T00:32:58;6.33;;;5.70;;
11123;SDS011;5616;42.692;23.312;2023-08-20T00:35:25;5.87;;;5.30;;
11123;SDS011;5616;42.692;23.312;2023-08-20T00:37:52;8.13;;;6.10;;
11123;SDS011;5616;42.692;23.312;2023-08-20T00:40:19;9.07;;;6.27;;
11123;SDS011;5616;42.692;23.312;2023-08-20T00:42:47;8.00;;;6.50;;
11123;SDS011;5616;42.692;23.312;2023-08-20T00:45:14;6.80;;;6.10;;
11123;SDS011;5616;42.692;23.312;2023-08-20T00:47:42;6.43;;;5.83;;
11123;SDS011;5616;42.692;23.312;2023-08-20T00:50:09;8.50;;;5.80;;
11123;SDS011;5616;42.692;23.312;2023-08-20T00:52:38;8.33;;;5.97;;
11123;SDS011;5616;42.692;23.312;2023-08-20T00:55:06;7.90;;;6.10;;
11123;SDS011;5616;42.692;23.312;2023-08-20T00:57:35;7.20;;;6.10;;
11123;SDS011;5616;42.692;23.312;2023-08-20T01:00:04;8.65;;;6.50;;
11123;SDS011;5616;42.692;23.312;2023-08-20T01:02:34;8.17;;;6.33;;
11123;SDS011;5616;42.692;23.312;2023-08-20T01:05:01;6.97;;;6.27;;
11123;SDS011;5616;42.692;23.312;2023-08-20T01:07:31;9.33;;;6.33;;
11123;SDS011;5616;42.692;23.312;2023-08-20T01:10:07;7.93;;;6.43;;
11123;SDS011;5616;42.692;23.312;2023-08-20T01:12:41;7.10;;;5.77;;
11123;SDS011;5616;42.692;23.312;2023-08-20T01:15:11;8.53;;;6.37;;
11123;SDS011;5616;42.692;23.312;2023-08-20T01:17:39;9.27;;;6.60;;
11123;SDS011;5616;42.692;23.312;2023-08-20T01:20:07;7.60;;;6.90;;
11123;SDS011;5616;42.692;23.312;2023-08-20T01:25:57;8.77;;;6.33;;
11123;SDS011;5616;42.692;23.312;2023-08-20T01:28:35;11.13;;;7.03;;
11123;SDS011;5616;42.692;23.312;2023-08-20T01:31:04;9.60;;;6.37;;
11123;SDS011;5616;42.692;23.312;2023-08-20T01:33:32;8.17;;;6.80;;
11123;SDS011;5616;42.692;23.312;2023-08-20T01:36:00;9.80;;;7.10;;
11123;SDS011;5616;42.692;23.312;2023-08-20T01:38:27;10.97;;;6.70;;
11123;SDS011;5616;42.692;23.312;2023-08-20T01:40:54;9.93;;;7.00;;
11123;SDS011;5616;42.692;23.312;2023-08-20T01:43:21;9.00;;;6.93;;
11123;SDS011;5616;42.692;23.312;2023-08-20T01:45:49;11.37;;;6.80;;
11123;SDS011;5616;42.692;23.312;2023-08-20T01:48:16;7.90;;;7.10;;
11123;SDS011;5616;42.692;23.312;2023-08-20T01:53:32;8.80;;;7.40;;
11123;SDS011;5616;42.692;23.312;2023-08-20T01:56:00;8.00;;;7.23;;
11123;SDS011;5616;42.692;23.312;2023-08-20T01:58:27;7.67;;;6.97;;
11123;SDS011;5616;42.692;23.312;2023-08-20T02:00:55;9.20;;;6.90;;
11123;SDS011;5616;42.692;23.312;2023-08-20T02:03:22;16.77;;;6.20;;
11123;SDS011;5616;42.692;23.312;2023-08-20T02:05:48;12.20;;;7.00;;
11123;SDS011;5616;42.692;23.312;2023-08-20T02:08:15;8.93;;;7.23;;
11123;SDS011;5616;42.692;23.312;2023-08-20T02:10:42;7.93;;;6.90;;
11123;SDS011;5616;42.692;23.312;2023-08-20T02:13:09;9.07;;;7.53;;
11123;SDS011;5616;42.692;23.312;2023-08-20T02:15:36;8.23;;;7.00;;
11123;SDS011;5616;42.692;23.312;2023-08-20T02:18:05;8.77;;;6.90;;
11123;SDS011;5616;42.692;23.312;2023-08-20T02:20:32;8.43;;;7.33;;
11123;SDS011;5616;42.692;23.312;2023-08-20T02:22:58;9.67;;;7.30;;
11123;SDS011;5616;42.692;23.312;2023-08-20T02:25:25;8.37;;;7.47;;
11123;SDS011;5616;42.692;23.312;2023-08-20T02:27:53;9.33;;;6.93;;
11123;SDS011;5616;42.692;23.312;2023-08-20T02:30:20;10.10;;;7.00;;
11123;SDS011;5616;42.692;23.312;2023-08-20T02:32:47;8.67;;;7.33;;
11123;SDS011;5616;42.692;23.312;2023-08-20T02:35:15;10.10;;;7.47;;
11123;SDS011;5616;42.692;23.312;2023-08-20T02:37:42;7.97;;;7.13;;
11123;SDS011;5616;42.692;23.312;2023-08-20T02:40:10;7.60;;;6.90;;
11123;SDS011;5616;42.692;23.312;2023-08-20T02:42:39;9.37;;;6.87;;
11123;SDS011;5616;42.692;23.312;2023-08-20T02:45:07;8.53;;;7.47;;
11123;SDS011;5616;42.692;23.312;2023-08-20T02:47:35;12.57;;;7.87;;
11123;SDS011;5616;42.692;23.312;2023-08-20T02:50:02;12.07;;;7.80;;
11123;SDS011;5616;42.692;23.312;2023-08-20T02:52:32;9.73;;;7.57;;
11123;SDS011;5616;42.692;23.312;2023-08-20T02:54:59;10.37;;;7.73;;
11123;SDS011;5616;42.692;23.312;2023-08-20T02:57:26;11.90;;;7.30;;
11123;SDS011;5616;42.692;23.312;2023-08-20T02:59:52;10.30;;;7.47;;
11123;SDS011;5616;42.692;23.312;2023-08-20T03:02:19;7.63;;;6.97;;
11123;SDS011;5616;42.692;23.312;2023-08-20T03:04:46;8.17;;;6.83;;
11123;SDS011;5616;42.692;23.312;2023-08-20T03:07:13;8.10;;;7.30;;
11123;SDS011;5616;42.692;23.312;2023-08-20T03:09:41;8.60;;;7.80;;
11123;SDS011;5616;42.692;23.312;2023-08-20T03:12:08;11.73;;;7.63;;
11123;SDS011;5616;42.692;23.312;2023-08-20T03:14:34;8.33;;;7.20;;
11123;SDS011;5616;42.692;23.312;2023-08-20T03:17:01;8.80;;;7.50;;
11123;SDS011;5616;42.692;23.312;2023-08-20T03:19:32;9.30;;;7.60;;
11123;SDS011;5616;42.692;23.312;2023-08-20T03:21:59;11.03;;;7.47;;
11123;SDS011;5616;42.692;23.312;2023-08-20T03:24:26;8.37;;;7.53;;
11123;SDS011;5616;42.692;23.312;2023-08-20T03:26:54;8.53;;;7.67;;
11123;SDS011;5616;42.692;23.312;2023-08-20T03:29:21;8.83;;;7.50;;
11123;SDS011;5616;42.692;23.312;2023-08-20T03:31:50;11.03;;;7.67;;
11123;SDS011;5616;42.692;23.312;2023-08-20T03:34:17;9.93;;;8.30;;
11123;SDS011;5616;42.692;23.312;2023-08-20T03:36:43;8.90;;;7.53;;
11123;SDS011;5616;42.692;23.312;2023-08-20T03:39:10;8.50;;;7.40;;
11123;SDS011;5616;42.692;23.312;2023-08-20T03:41:38;12.70;;;7.87;;
11123;SDS011;5616;42.692;23.312;2023-08-20T03:44:06;9.07;;;8.17;;
11123;SDS011;5616;42.692;23.312;2023-08-20T03:46:33;9.17;;;7.37;;
11123;SDS011;5616;42.692;23.312;2023-08-20T03:49:00;9.00;;;7.60;;
11123;SDS011;5616;42.692;23.312;2023-08-20T03:51:27;9.90;;;7.50;;
11123;SDS011;5616;42.692;23.312;2023-08-20T03:53:53;8.57;;;7.60;;
11123;SDS011;5616;42.692;23.312;2023-08-20T03:56:21;10.87;;;7.00;;
11123;SDS011;5616;42.692;23.312;2023-08-20T03:58:48;11.73;;;7.80;;
11123;SDS011;5616;42.692;23.312;2023-08-20T04:01:16;8.03;;;7.23;;
11123;SDS011;5616;42.692;23.312;2023-08-20T04:03:43;14.70;;;7.93;;
11123;SDS011;5616;42.692;23.312;2023-08-20T04:06:09;9.27;;;7.70;;
11123;SDS011;5616;42.692;23.312;2023-08-20T04:08:36;12.00;;;8.20;;
11123;SDS011;5616;42.692;23.312;2023-08-20T04:11:03;8.70;;;7.77;;
11123;SDS011;5616;42.692;23.312;2023-08-20T04:13:30;11.00;;;7.90;;
11123;SDS011;5616;42.692;23.312;2023-08-20T04:15:56;10.97;;;7.77;;
11123;SDS011;5616;42.692;23.312;2023-08-20T04:18:25;9.13;;;8.23;;
11123;SDS011;5616;42.692;23.312;2023-08-20T04:20:53;10.27;;;7.90;;
11123;SDS011;5616;42.692;23.312;2023-08-20T04:23:23;10.93;;;7.60;;
11123;SDS011;5616;42.692;23.312;2023-08-20T04:25:50;10.43;;;7.93;;
11123;SDS011;5616;42.692;23.312;2023-08-20T04:28:17;9.90;;;7.90;;
11123;SDS011;5616;42.692;23.312;2023-08-20T04:30:43;10.70;;;8.07;;
11123;SDS011;5616;42.692;23.312;2023-08-20T04:33:11;8.93;;;7.73;;
11123;SDS011;5616;42.692;23.312;2023-08-20T04:35:43;9.07;;;8.10;;
11123;SDS011;5616;42.692;23.312;2023-08-20T04:38:10;9.67;;;7.97;;
11123;SDS011;5616;42.692;23.312;2023-08-20T04:40:37;9.17;;;7.90;;
11123;SDS011;5616;42.692;23.312;2023-08-20T04:43:04;11.60;;;8.00;;
11123;SDS011;5616;42.692;23.312;2023-08-20T04:45:32;12.07;;;7.80;;
11123;SDS011;5616;42.692;23.312;2023-08-20T04:47:59;8.63;;;7.40;;
11123;SDS011;5616;42.692;23.312;2023-08-20T04:50:25;12.90;;;7.43;;
11123;SDS011;5616;42.692;23.312;2023-08-20T04:52:54;11.80;;;7.90;;
11123;SDS011;5616;42.692;23.312;2023-08-20T04:55:21;10.83;;;7.93;;
11123;SDS011;5616;42.692;23.312;2023-08-20T04:57:48;13.93;;;8.47;;
11123;SDS011;5616;42.692;23.312;2023-08-20T05:00:17;9.80;;;7.70;;
11123;SDS011;5616;42.692;23.312;2023-08-20T05:02:49;12.53;;;8.33;;
11123;SDS011;5616;42.692;23.312;2023-08-20T05:05:18;11.27;;;8.03;;
11123;SDS011;5616;42.692;23.312;2023-08-20T05:07:45;10.27;;;8.00;;
11123;SDS011;5616;42.692;23.312;2023-08-20T05:10:13;10.23;;;7.33;;
11123;SDS011;5616;42.692;23.312;2023-08-20T05:12:40;10.07;;;7.80;;
11123;SDS011;5616;42.692;23.312;2023-08-20T05:15:07;9.33;;;7.83;;
11123;SDS011;5616;42.692;23.312;2023-08-20T05:17:34;11.17;;;8.00;;
11123;SDS011;5616;42.692;23.312;2023-08-20T05:20:01;9.43;;;8.43;;
11123;SDS011;5616;42.692;23.312;2023-08-20T05:22:29;12.37;;;8.27;;
11123;SDS011;5616;42.692;23.312;2023-08-20T05:24:56;8.57;;;7.03;;
11123;SDS011;5616;42.692;23.312;2023-08-20T05:27:24;8.33;;;7.40;;
11123;SDS011;5616;42.692;23.312;2023-08-20T05:29:50;8.80;;;7.60;;
11123;SDS011;5616;42.692;23.312;2023-08-20T05:32:19;9.07;;;7.57;;
11123;SDS011;5616;42.692;23.312;2023-08-20T05:34:46;12.38;;;7.60;;
11123;SDS011;5616;42.692;23.312;2023-08-20T05:37:12;11.63;;;7.57;;
11123;SDS011;5616;42.692;23.312;2023-08-20T05:39:40;10.07;;;7.23;;
11123;SDS011;5616;42.692;23.312;2023-08-20T05:42:09;10.98;;;7.13;;
11123;SDS011;5616;42.692;23.312;2023-08-20T05:44:39;10.35;;;7.97;;
11123;SDS011;5616;42.692;23.312;2023-08-20T05:47:09;8.23;;;7.35;;
11123;SDS011;5616;42.692;23.312;2023-08-20T05:49:36;9.07;;;7.13;;
11123;SDS011;5616;42.692;23.312;2023-08-20T05:52:03;10.57;;;7.43;;
11123;SDS011;5616;42.692;23.312;2023-08-20T05:54:30;12.30;;;7.40;;
11123;SDS011;5616;42.692;23.312;2023-08-20T05:56:57;8.75;;;7.30;;
11123;SDS011;5616;42.692;23.312;2023-08-20T05:59:24;11.45;;;6.97;;
11123;SDS011;5616;42.692;23.312;2023-08-20T06:01:53;11.95;;;7.10;;
11123;SDS011;5616;42.692;23.312;2023-08-20T06:04:20;11.18;;;7.38;;
11123;SDS011;5616;42.692;23.312;2023-08-20T06:06:47;11.82;;;7.30;;
11123;SDS011;5616;42.692;23.312;2023-08-20T06:09:14;10.70;;;7.10;;
11123;SDS011;5616;42.692;23.312;2023-08-20T06:11:41;11.18;;;7.07;;
11123;SDS011;5616;42.692;23.312;2023-08-20T06:14:07;10.50;;;7.50;;
11123;SDS011;5616;42.692;23.312;2023-08-20T06:16:34;12.85;;;7.40;;
11123;SDS011;5616;42.692;23.312;2023-08-20T06:19:02;9.88;;;7.07;;
11123;SDS011;5616;42.692;23.312;2023-08-20T06:21:29;11.70;;;7.68;;
11123;SDS011;5616;42.692;23.312;2023-08-20T06:23:56;10.57;;;7.45;;
11123;SDS011;5616;42.692;23.312;2023-08-20T06:26:23;9.45;;;7.93;;
11123;SDS011;5616;42.692;23.312;2023-08-20T06:28:50;7.85;;;7.05;;
11123;SDS011;5616;42.692;23.312;2023-08-20T06:31:16;8.43;;;7.30;;
11123;SDS011;5616;42.692;23.312;2023-08-20T06:33:43;8.32;;;7.53;;
11123;SDS011;5616;42.692;23.312;2023-08-20T06:36:11;9.82;;;7.63;;
11123;SDS011;5616;42.692;23.312;2023-08-20T06:38:38;10.68;;;7.72;;
11123;SDS011;5616;42.692;23.312;2023-08-20T06:41:05;10.43;;;7.00;;
11123;SDS011;5616;42.692;23.312;2023-08-20T06:43:32;9.80;;;7.45;;
11123;SDS011;5616;42.692;23.312;2023-08-20T06:45:58;8.05;;;6.90;;
11123;SDS011;5616;42.692;23.312;2023-08-20T06:48:25;11.82;;;7.00;;
11123;SDS011;5616;42.692;23.312;2023-08-20T06:50:52;12.82;;;6.85;;
11123;SDS011;5616;42.692;23.312;2023-08-20T06:53:20;7.53;;;6.15;;
11123;SDS011;5616;42.692;23.312;2023-08-20T06:55:47;6.57;;;5.95;;
11123;SDS011;5616;42.692;23.312;2023-08-20T06:58:13;7.68;;;6.50;;
11123;SDS011;5616;42.692;23.312;2023-08-20T07:00:40;7.60;;;5.90;;
11123;SDS011;5616;42.692;23.312;2023-08-20T07:03:07;9.43;;;6.40;;
11123;SDS011;5616;42.692;23.312;2023-08-20T07:05:34;8.65;;;6.40;;
11123;SDS011;5616;42.692;23.312;2023-08-20T07:08:01;7.40;;;6.35;;
11123;SDS011;5616;42.692;23.312;2023-08-20T07:10:29;7.38;;;5.95;;
11123;SDS011;5616;42.692;23.312;2023-08-20T07:12:55;7.22;;;5.78;;
11123;SDS011;5616;42.692;23.312;2023-08-20T07:15:22;6.88;;;5.65;;
11123;SDS011;5616;42.692;23.312;2023-08-20T07:17:49;7.97;;;5.72;;
11123;SDS011;5616;42.692;23.312;2023-08-20T07:20:16;8.27;;;5.82;;
11123;SDS011;5616;42.692;23.312;2023-08-20T07:22:43;6.50;;;5.50;;
11123;SDS011;5616;42.692;23.312;2023-08-20T07:25:09;5.95;;;5.35;;
11123;SDS011;5616;42.692;23.312;2023-08-20T07:27:37;6.90;;;5.57;;
11123;SDS011;5616;42.692;23.312;2023-08-20T07:30:05;5.75;;;4.82;;
11123;SDS011;5616;42.692;23.312;2023-08-20T07:32:33;5.38;;;4.70;;
11123;SDS011;5616;42.692;23.312;2023-08-20T07:34:59;7.88;;;5.30;;
11123;SDS011;5616;42.692;23.312;2023-08-20T07:37:27;5.97;;;4.45;;
11123;SDS011;5616;42.692;23.312;2023-08-20T07:39:54;5.50;;;4.43;;
11123;SDS011;5616;42.692;23.312;2023-08-20T07:42:20;8.23;;;5.25;;
11123;SDS011;5616;42.692;23.312;2023-08-20T07:44:48;8.48;;;4.95;;
11123;SDS011;5616;42.692;23.312;2023-08-20T07:47:15;9.43;;;5.75;;
11123;SDS011;5616;42.692;23.312;2023-08-20T07:49:42;7.07;;;5.15;;
11123;SDS011;5616;42.692;23.312;2023-08-20T07:52:09;5.50;;;5.00;;
11123;SDS011;5616;42.692;23.312;2023-08-20T07:54:35;7.57;;;4.93;;
11123;SDS011;5616;42.692;23.312;2023-08-20T07:57:02;11.02;;;4.95;;
11123;SDS011;5616;42.692;23.312;2023-08-20T07:59:29;5.60;;;5.10;;
11123;SDS011;5616;42.692;23.312;2023-08-20T08:01:57;5.85;;;4.28;;
11123;SDS011;5616;42.692;23.312;2023-08-20T08:04:24;5.25;;;4.70;;
11123;SDS011;5616;42.692;23.312;2023-08-20T08:06:52;5.97;;;5.13;;
11123;SDS011;5616;42.692;23.312;2023-08-20T08:09:19;4.80;;;4.30;;
11123;SDS011;5616;42.692;23.312;2023-08-20T08:11:47;6.40;;;4.97;;
11123;SDS011;5616;42.692;23.312;2023-08-20T08:14:15;7.07;;;4.50;;
11123;SDS011;5616;42.692;23.312;2023-08-20T08:16:41;5.53;;;4.55;;
11123;SDS011;5616;42.692;23.312;2023-08-20T08:19:09;8.02;;;4.30;;
11123;SDS011;5616;42.692;23.312;2023-08-20T08:21:36;6.50;;;4.85;;
11123;SDS011;5616;42.692;23.312;2023-08-20T08:24:03;4.90;;;4.35;;
11123;SDS011;5616;42.692;23.312;2023-08-20T08:26:31;5.50;;;4.40;;
11123;SDS011;5616;42.692;23.312;2023-08-20T08:28:59;6.60;;;4.07;;
11123;SDS011;5616;42.692;23.312;2023-08-20T08:31:26;6.40;;;4.45;;
11123;SDS011;5616;42.692;23.312;2023-08-20T08:33:53;6.82;;;4.50;;
11123;SDS011;5616;42.692;23.312;2023-08-20T08:36:21;4.82;;;4.32;;
11123;SDS011;5616;42.692;23.312;2023-08-20T08:38:50;4.93;;;4.43;;
11123;SDS011;5616;42.692;23.312;2023-08-20T08:41:16;5.68;;;4.10;;
11123;SDS011;5616;42.692;23.312;2023-08-20T08:43:43;4.35;;;3.95;;
11123;SDS011;5616;42.692;23.312;2023-08-20T08:46:12;6.20;;;3.78;;
11123;SDS011;5616;42.692;23.312;2023-08-20T08:48:40;4.45;;;3.33;;
11123;SDS011;5616;42.692;23.312;2023-08-20T08:51:07;8.15;;;3.85;;
11123;SDS011;5616;42.692;23.312;2023-08-20T08:53:36;4.45;;;3.65;;
11123;SDS011;5616;42.692;23.312;2023-08-20T08:56:03;3.47;;;3.17;;
11123;SDS011;5616;42.692;23.312;2023-08-20T08:58:30;5.93;;;3.50;;
11123;SDS011;5616;42.692;23.312;2023-08-20T09:00:59;3.60;;;3.30;;
11123;SDS011;5616;42.692;23.312;2023-08-20T09:03:26;4.07;;;2.97;;
11123;SDS011;5616;42.692;23.312;2023-08-20T09:05:54;4.40;;;3.38;;
11123;SDS011;5616;42.692;23.312;2023-08-20T09:08:22;3.47;;;3.17;;
11123;SDS011;5616;42.692;23.312;2023-08-20T09:10:51;3.97;;;2.97;;
11123;SDS011;5616;42.692;23.312;2023-08-20T09:13:21;4.90;;;3.13;;
11123;SDS011;5616;42.692;23.312;2023-08-20T09:15:50;5.63;;;3.53;;
11123;SDS011;5616;42.692;23.312;2023-08-20T09:18:18;5.43;;;3.15;;
11123;SDS011;5616;42.692;23.312;2023-08-20T09:20:45;5.15;;;3.42;;
11123;SDS011;5616;42.692;23.312;2023-08-20T09:23:14;5.20;;;3.03;;
11123;SDS011;5616;42.692;23.312;2023-08-20T09:25:41;3.55;;;3.00;;
11123;SDS011;5616;42.692;23.312;2023-08-20T09:28:10;4.95;;;3.33;;
11123;SDS011;5616;42.692;23.312;2023-08-20T09:30:36;3.50;;;3.20;;
11123;SDS011;5616;42.692;23.312;2023-08-20T09:33:06;3.60;;;3.20;;
11123;SDS011;5616;42.692;23.312;2023-08-20T09:35:34;5.50;;;3.33;;
11123;SDS011;5616;42.692;23.312;2023-08-20T09:38:01;7.50;;;3.72;;
11123;SDS011;5616;42.692;23.312;2023-08-20T09:40:29;3.92;;;3.25;;
11123;SDS011;5616;42.692;23.312;2023-08-20T09:42:57;7.70;;;3.20;;
11123;SDS011;5616;42.692;23.312;2023-08-20T09:45:25;6.45;;;3.53;;
11123;SDS011;5616;42.692;23.312;2023-08-20T09:47:55;4.65;;;3.00;;
11123;SDS011;5616;42.692;23.312;2023-08-20T09:50:24;5.03;;;3.20;;
11123;SDS011;5616;42.692;23.312;2023-08-20T09:52:55;4.15;;;3.22;;
11123;SDS011;5616;42.692;23.312;2023-08-20T09:55:28;5.78;;;3.50;;
11123;SDS011;5616;42.692;23.312;2023-08-20T09:57:59;5.40;;;3.13;;
11123;SDS011;5616;42.692;23.312;2023-08-20T10:00:29;5.43;;;3.05;;
11123;SDS011;5616;42.692;23.312;2023-08-20T10:02:57;4.00;;;3.10;;
11123;SDS011;5616;42.692;23.312;2023-08-20T10:05:24;5.60;;;3.17;;
11123;SDS011;5616;42.692;23.312;2023-08-20T10:07:52;7.07;;;3.22;;
11123;SDS011;5616;42.692;23.312;2023-08-20T10:10:20;3.97;;;2.88;;
11123;SDS011;5616;42.692;23.312;2023-08-20T10:12:47;3.60;;;3.30;;
11123;SDS011;5616;42.692;23.312;2023-08-20T10:15:14;3.40;;;3.08;;
11123;SDS011;5616;42.692;23.312;2023-08-20T10:17:43;4.80;;;3.05;;
11123;SDS011;5616;42.692;23.312;2023-08-20T10:20:13;3.45;;;2.90;;
11123;SDS011;5616;42.692;23.312;2023-08-20T10:22:42;3.42;;;3.05;;
11123;SDS011;5616;42.692;23.312;2023-08-20T10:25:10;3.63;;;2.80;;
11123;SDS011;5616;42.692;23.312;2023-08-20T10:27:38;3.03;;;2.80;;
11123;SDS011;5616;42.692;23.312;2023-08-20T10:30:08;3.85;;;2.80;;
11123;SDS011;5616;42.692;23.312;2023-08-20T10:32:46;4.38;;;3.30;;
11123;SDS011;5616;42.692;23.312;2023-08-20T10:35:18;5.13;;;3.22;;
11123;SDS011;5616;42.692;23.312;2023-08-20T10:38:01;2.92;;;2.72;;
11123;SDS011;5616;42.692;23.312;2023-08-20T10:40:48;2.95;;;2.72;;
11123;SDS011;5616;42.692;23.312;2023-08-20T10:43:31;6.15;;;3.17;;
11123;SDS011;5616;42.692;23.312;2023-08-20T10:46:02;6.05;;;3.00;;
11123;SDS011;5616;42.692;23.312;2023-08-20T10:48:35;2.72;;;2.45;;
11123;SDS011;5616;42.692;23.312;2023-08-20T10:51:09;4.00;;;3.00;;
11123;SDS011;5616;42.692;23.312;2023-08-20T10:53:37;3.33;;;3.00;;
11123;SDS011;5616;42.692;23.312;2023-08-20T10:56:11;3.10;;;2.80;;
11123;SDS011;5616;42.692;23.312;2023-08-20T10:58:44;3.00;;;2.80;;
11123;SDS011;5616;42.692;23.312;2023-08-20T11:01:12;3.47;;;3.15;;
11123;SDS011;5616;42.692;23.312;2023-08-20T11:03:41;5.85;;;3.25;;
11123;SDS011;5616;42.692;23.312;2023-08-20T11:06:09;5.18;;;2.92;;
11123;SDS011;5616;42.692;23.312;2023-08-20T11:08:36;5.65;;;2.90;;
11123;SDS011;5616;42.692;23.312;2023-08-20T11:11:03;3.50;;;2.92;;
11123;SDS011;5616;42.692;23.312;2023-08-20T11:13:31;3.03;;;2.67;;
11123;SDS011;5616;42.692;23.312;2023-08-20T11:15:58;4.25;;;3.03;;
11123;SDS011;5616;42.692;23.312;2023-08-20T11:18:25;3.78;;;2.80;;
11123;SDS011;5616;42.692;23.312;2023-08-20T11:20:54;4.68;;;2.90;;
11123;SDS011;5616;42.692;23.312;2023-08-20T11:23:21;4.78;;;2.72;;
11123;SDS011;5616;42.692;23.312;2023-08-20T11:25:48;3.25;;;2.90;;
11123;SDS011;5616;42.692;23.312;2023-08-20T11:28:16;4.53;;;2.80;;
11123;SDS011;5616;42.692;23.312;2023-08-20T11:30:43;3.45;;;3.00;;
11123;SDS011;5616;42.692;23.312;2023-08-20T11:33:10;2.75;;;2.55;;
11123;SDS011;5616;42.692;23.312;2023-08-20T11:35:37;3.17;;;2.88;;
11123;SDS011;5616;42.692;23.312;2023-08-20T11:38:05;3.45;;;3.15;;
11123;SDS011;5616;42.692;23.312;2023-08-20T11:40:32;3.30;;;2.72;;
11123;SDS011;5616;42.692;23.312;2023-08-20T11:42:59;6.53;;;3.10;;
11123;SDS011;5616;42.692;23.312;2023-08-20T11:45:26;4.00;;;3.20;;
11123;SDS011;5616;42.692;23.312;2023-08-20T11:47:55;4.20;;;2.92;;
11123;SDS011;5616;42.692;23.312;2023-08-20T11:50:23;4.53;;;3.08;;
11123;SDS011;5616;42.692;23.312;2023-08-20T11:52:51;3.50;;;2.90;;
11123;SDS011;5616;42.692;23.312;2023-08-20T11:55:23;3.85;;;3.10;;
11123;SDS011;5616;42.692;23.312;2023-08-20T11:57:51;3.55;;;3.25;;
11123;SDS011;5616;42.692;23.312;2023-08-20T12:00:27;7.47;;;3.08;;
11123;SDS011;5616;42.692;23.312;2023-08-20T12:02:57;5.03;;;3.30;;
11123;SDS011;5616;42.692;23.312;2023-08-20T12:05:26;6.45;;;2.97;;
11123;SDS011;5616;42.692;23.312;2023-08-20T12:07:56;4.07;;;3.40;;
11123;SDS011;5616;42.692;23.312;2023-08-20T12:10:25;5.38;;;3.00;;
11123;SDS011;5616;42.692;23.312;2023-08-20T12:12:53;3.40;;;3.00;;
11123;SDS011;5616;42.692;23.312;2023-08-20T12:15:21;4.75;;;3.30;;
11123;SDS011;5616;42.692;23.312;2023-08-20T12:17:58;5.55;;;3.28;;
11123;SDS011;5616;42.692;23.312;2023-08-20T12:20:26;4.07;;;3.42;;
11123;SDS011;5616;42.692;23.312;2023-08-20T12:23:00;6.22;;;2.97;;
11123;SDS011;5616;42.692;23.312;2023-08-20T12:25:29;4.30;;;3.20;;
11123;SDS011;5616;42.692;23.312;2023-08-20T12:27:57;3.33;;;3.00;;
11123;SDS011;5616;42.692;23.312;2023-08-20T12:30:24;3.10;;;2.90;;
11123;SDS011;5616;42.692;23.312;2023-08-20T12:32:51;4.65;;;3.00;;
11123;SDS011;5616;42.692;23.312;2023-08-20T12:35:18;4.60;;;3.17;;
11123;SDS011;5616;42.692;23.312;2023-08-20T12:37:45;4.38;;;3.10;;
11123;SDS011;5616;42.692;23.312;2023-08-20T12:40:11;9.30;;;3.42;;
11123;SDS011;5616;42.692;23.312;2023-08-20T12:42:40;5.32;;;2.97;;
11123;SDS011;5616;42.692;23.312;2023-08-20T12:45:07;3.45;;;3.10;;
11123;SDS011;5616;42.692;23.312;2023-08-20T12:47:35;3.72;;;3.25;;
11123;SDS011;5616;42.692;23.312;2023-08-20T12:50:02;5.10;;;3.30;;
11123;SDS011;5616;42.692;23.312;2023-08-20T12:52:30;5.40;;;3.15;;
11123;SDS011;5616;42.692;23.312;2023-08-20T12:54:56;4.57;;;3.45;;
11123;SDS011;5616;42.692;23.312;2023-08-20T12:57:23;6.03;;;3.28;;
11123;SDS011;5616;42.692;23.312;2023-08-20T12:59:52;3.80;;;3.13;;
11123;SDS011;5616;42.692;23.312;2023-08-20T13:02:19;3.33;;;2.95;;
11123;SDS011;5616;42.692;23.312;2023-08-20T13:04:46;5.30;;;2.88;;
11123;SDS011;5616;42.692;23.312;2023-08-20T13:07:14;3.30;;;3.00;;
11123;SDS011;5616;42.692;23.312;2023-08-20T13:09:41;5.13;;;2.90;;
11123;SDS011;5616;42.692;23.312;2023-08-20T13:12:09;3.55;;;3.25;;
11123;SDS011;5616;42.692;23.312;2023-08-20T13:14:37;4.00;;;3.10;;
11123;SDS011;5616;42.692;23.312;2023-08-20T13:17:07;3.85;;;3.10;;
11123;SDS011;5616;42.692;23.312;2023-08-20T13:19:35;5.72;;;3.10;;
11123;SDS011;5616;42.692;23.312;2023-08-20T13:22:02;3.55;;;3.00;;
11123;SDS011;5616;42.692;23.312;2023-08-20T13:24:29;3.60;;;3.30;;
11123;SDS011;5616;42.692;23.312;2023-08-20T13:26:56;4.60;;;3.38;;
11123;SDS011;5616;42.692;23.312;2023-08-20T13:29:23;3.08;;;2.88;;
11123;SDS011;5616;42.692;23.312;2023-08-20T13:31:49;4.20;;;3.25;;
11123;SDS011;5616;42.692;23.312;2023-08-20T13:34:17;5.85;;;3.33;;
11123;SDS011;5616;42.692;23.312;2023-08-20T13:36:44;3.40;;;2.92;;
11123;SDS011;5616;42.692;23.312;2023-08-20T13:39:12;4.25;;;3.30;;
11123;SDS011;5616;42.692;23.312;2023-08-20T13:41:40;3.40;;;3.10;;
11123;SDS011;5616;42.692;23.312;2023-08-20T13:44:07;3.05;;;2.83;;
11123;SDS011;5616;42.692;23.312;2023-08-20T13:46:34;3.97;;;2.83;;
11123;SDS011;5616;42.692;23.312;2023-08-20T13:49:01;3.22;;;2.97;;
11123;SDS011;5616;42.692;23.312;2023-08-20T13:51:29;3.20;;;2.90;;
11123;SDS011;5616;42.692;23.312;2023-08-20T13:53:56;5.85;;;3.00;;
11123;SDS011;5616;42.692;23.312;2023-08-20T13:56:23;3.55;;;3.00;;
11123;SDS011;5616;42.692;23.312;2023-08-20T13:58:50;3.20;;;2.90;;
11123;SDS011;5616;42.692;23.312;2023-08-20T14:01:17;5.35;;;2.90;;
11123;SDS011;5616;42.692;23.312;2023-08-20T14:03:44;4.07;;;3.25;;
11123;SDS011;5616;42.692;23.312;2023-08-20T14:06:11;4.97;;;3.25;;
11123;SDS011;5616;42.692;23.312;2023-08-20T14:08:39;5.65;;;3.08;;
11123;SDS011;5616;42.692;23.312;2023-08-20T14:11:06;3.25;;;2.92;;
11123;SDS011;5616;42.692;23.312;2023-08-20T14:13:33;4.68;;;2.75;;
11123;SDS011;5616;42.692;23.312;2023-08-20T14:16:00;5.05;;;2.95;;
11123;SDS011;5616;42.692;23.312;2023-08-20T14:18:26;4.18;;;3.13;;
11123;SDS011;5616;42.692;23.312;2023-08-20T14:20:53;3.78;;;2.60;;
11123;SDS011;5616;42.692;23.312;2023-08-20T14:23:20;4.65;;;2.70;;
11123;SDS011;5616;42.692;23.312;2023-08-20T14:25:48;4.70;;;3.28;;
11123;SDS011;5616;42.692;23.312;2023-08-20T14:28:15;5.18;;;3.15;;
11123;SDS011;5616;42.692;23.312;2023-08-20T14:30:41;4.90;;;3.05;;
11123;SDS011;5616;42.692;23.312;2023-08-20T14:33:08;3.28;;;2.90;;
11123;SDS011;5616;42.692;23.312;2023-08-20T14:35:35;5.15;;;3.25;;
11123;SDS011;5616;42.692;23.312;2023-08-20T14:38:02;5.40;;;3.08;;
11123;SDS011;5616;42.692;23.312;2023-08-20T14:40:29;5.70;;;3.00;;
11123;SDS011;5616;42.692;23.312;2023-08-20T14:42:58;4.90;;;2.85;;
11123;SDS011;5616;42.692;23.312;2023-08-20T14:45:25;3.13;;;2.83;;
11123;SDS011;5616;42.692;23.312;2023-08-20T14:47:51;3.95;;;3.00;;
11123;SDS011;5616;42.692;23.312;2023-08-20T14:50:19;3.80;;;3.15;;
11123;SDS011;5616;42.692;23.312;2023-08-20T14:52:45;5.47;;;3.10;;
11123;SDS011;5616;42.692;23.312;2023-08-20T14:55:16;4.00;;;3.05;;